sensor_id;sensor_type;location;lat;lon;timestamp;P1;durP1;ratioP1;P2;durP2;ratioP2
63555;SDS011;49700;48.072;7.800;2023-10-31T00:01:43;1.00;;;0.80;;
63555;SDS011;49700;48.072;7.800;2023-10-31T00:04:08;0.77;;;0.70;;
63555;SDS011;49700;48.072;7.800;2023-10-31T00:06:34;4.00;;;1.83;;
63555;SDS011;49700;48.072;7.800;2023-10-31T00:09:00;0.70;;;0.60;;
63555;SDS011;49700;48.072;7.800;2023-10-31T00:11:26;1.00;;;0.80;;
63555;SDS011;49700;48.072;7.800;2023-10-31T00:13:51;1.97;;;0.60;;
63555;SDS011;49700;48.072;7.800;2023-10-31T00:16:16;2.83;;;0.90;;
63555;SDS011;49700;48.072;7.800;2023-10-31T00:18:42;0.87;;;0.70;;
63555;SDS011;49700;48.072;7.800;2023-10-31T00:21:07;0.80;;;0.70;;
63555;SDS011;49700;48.072;7.800;2023-10-31T00:23:32;1.07;;;0.70;;
63555;SDS011;49700;48.072;7.800;2023-10-31T00:25:58;0.90;;;0.80;;
63555;SDS011;49700;48.072;7.800;2023-10-31T00:28:23;2.23;;;1.00;;
63555;SDS011;49700;48.072;7.800;2023-10-31T00:30:49;0.80;;;0.60;;
63555;SDS011;49700;48.072;7.800;2023-10-31T00:33:14;0.80;;;0.67;;
63555;SDS011;49700;48.072;7.800;2023-10-31T00:35:39;0.90;;;0.80;;
63555;SDS011;49700;48.072;7.800;2023-10-31T00:38:05;2.40;;;0.67;;
63555;SDS011;49700;48.072;7.800;2023-10-31T00:40:30;1.30;;;0.83;;
63555;SDS011;49700;48.072;7.800;2023-10-31T00:42:56;1.73;;;0.80;;
63555;SDS011;49700;48.072;7.800;2023-10-31T00:45:23;1.48;;;0.90;;
63555;SDS011;49700;48.072;7.800;2023-10-31T00:47:48;1.73;;;0.93;;
63555;SDS011;49700;48.072;7.800;2023-10-31T00:50:14;1.67;;;0.80;;
63555;SDS011;49700;48.072;7.800;2023-10-31T00:52:39;0.93;;;0.70;;
63555;SDS011;49700;48.072;7.800;2023-10-31T00:55:05;0.93;;;0.70;;
63555;SDS011;49700;48.072;7.800;2023-10-31T00:57:30;0.80;;;0.63;;
63555;SDS011;49700;48.072;7.800;2023-10-31T00:59:56;2.10;;;0.77;;
63555;SDS011;49700;48.072;7.800;2023-10-31T01:02:22;2.25;;;0.95;;
63555;SDS011;49700;48.072;7.800;2023-10-31T01:04:47;1.10;;;0.70;;
63555;SDS011;49700;48.072;7.800;2023-10-31T01:07:13;1.63;;;0.97;;
63555;SDS011;49700;48.072;7.800;2023-10-31T01:09:42;1.15;;;0.80;;
63555;SDS011;49700;48.072;7.800;2023-10-31T01:12:07;1.20;;;0.73;;
63555;SDS011;49700;48.072;7.800;2023-10-31T01:14:35;1.20;;;0.90;;
63555;SDS011;49700;48.072;7.800;2023-10-31T01:17:00;2.10;;;0.70;;
63555;SDS011;49700;48.072;7.800;2023-10-31T01:19:26;1.17;;;1.00;;
63555;SDS011;49700;48.072;7.800;2023-10-31T01:21:51;0.83;;;0.70;;
63555;SDS011;49700;48.072;7.800;2023-10-31T01:24:16;0.77;;;0.60;;
63555;SDS011;49700;48.072;7.800;2023-10-31T01:26:42;2.30;;;0.90;;
63555;SDS011;49700;48.072;7.800;2023-10-31T01:29:07;0.90;;;0.70;;
63555;SDS011;49700;48.072;7.800;2023-10-31T01:31:33;1.57;;;0.83;;
63555;SDS011;49700;48.072;7.800;2023-10-31T01:33:59;2.67;;;0.80;;
63555;SDS011;49700;48.072;7.800;2023-10-31T01:36:25;0.77;;;0.67;;
63555;SDS011;49700;48.072;7.800;2023-10-31T01:38:52;2.53;;;1.17;;
63555;SDS011;49700;48.072;7.800;2023-10-31T01:41:17;2.50;;;0.70;;
63555;SDS011;49700;48.072;7.800;2023-10-31T01:43:42;3.83;;;0.80;;
63555;SDS011;49700;48.072;7.800;2023-10-31T01:46:08;1.00;;;0.90;;
63555;SDS011;49700;48.072;7.800;2023-10-31T01:48:34;1.00;;;0.70;;
63555;SDS011;49700;48.072;7.800;2023-10-31T01:51:01;0.90;;;0.77;;
63555;SDS011;49700;48.072;7.800;2023-10-31T01:53:31;1.02;;;0.80;;
63555;SDS011;49700;48.072;7.800;2023-10-31T01:55:59;1.35;;;0.85;;
63555;SDS011;49700;48.072;7.800;2023-10-31T01:58:28;1.10;;;0.88;;
63555;SDS011;49700;48.072;7.800;2023-10-31T02:00:59;0.70;;;0.70;;
63555;SDS011;49700;48.072;7.800;2023-10-31T02:03:25;1.08;;;0.70;;
63555;SDS011;49700;48.072;7.800;2023-10-31T02:05:52;1.40;;;0.82;;
63555;SDS011;49700;48.072;7.800;2023-10-31T02:08:18;1.23;;;0.90;;
63555;SDS011;49700;48.072;7.800;2023-10-31T02:10:43;1.00;;;0.60;;
63555;SDS011;49700;48.072;7.800;2023-10-31T02:13:12;1.07;;;0.80;;
63555;SDS011;49700;48.072;7.800;2023-10-31T02:15:38;1.23;;;0.90;;
63555;SDS011;49700;48.072;7.800;2023-10-31T02:18:04;1.57;;;0.87;;
63555;SDS011;49700;48.072;7.800;2023-10-31T02:20:30;1.27;;;0.90;;
63555;SDS011;49700;48.072;7.800;2023-10-31T02:22:55;1.37;;;0.67;;
63555;SDS011;49700;48.072;7.800;2023-10-31T02:25:21;0.90;;;0.80;;
63555;SDS011;49700;48.072;7.800;2023-10-31T02:27:46;1.43;;;1.00;;
63555;SDS011;49700;48.072;7.800;2023-10-31T02:30:12;0.70;;;0.70;;
63555;SDS011;49700;48.072;7.800;2023-10-31T02:32:39;1.73;;;1.20;;
63555;SDS011;49700;48.072;7.800;2023-10-31T02:35:06;1.47;;;1.10;;
63555;SDS011;49700;48.072;7.800;2023-10-31T02:37:33;1.33;;;0.90;;
63555;SDS011;49700;48.072;7.800;2023-10-31T02:39:59;1.27;;;0.80;;
63555;SDS011;49700;48.072;7.800;2023-10-31T02:42:25;1.40;;;1.10;;
63555;SDS011;49700;48.072;7.800;2023-10-31T02:44:51;1.30;;;0.90;;
63555;SDS011;49700;48.072;7.800;2023-10-31T02:47:16;0.90;;;0.73;;
63555;SDS011;49700;48.072;7.800;2023-10-31T02:49:42;3.13;;;0.90;;
63555;SDS011;49700;48.072;7.800;2023-10-31T02:52:07;0.90;;;0.80;;
63555;SDS011;49700;48.072;7.800;2023-10-31T02:54:33;1.03;;;0.70;;
63555;SDS011;49700;48.072;7.800;2023-10-31T02:56:59;2.03;;;1.10;;
63555;SDS011;49700;48.072;7.800;2023-10-31T02:59:25;1.00;;;0.80;;
63555;SDS011;49700;48.072;7.800;2023-10-31T03:01:50;2.80;;;0.90;;
63555;SDS011;49700;48.072;7.800;2023-10-31T03:04:17;1.98;;;1.30;;
63555;SDS011;49700;48.072;7.800;2023-10-31T03:06:42;1.87;;;1.10;;
63555;SDS011;49700;48.072;7.800;2023-10-31T03:09:07;1.87;;;1.00;;
63555;SDS011;49700;48.072;7.800;2023-10-31T03:11:33;1.40;;;1.30;;
63555;SDS011;49700;48.072;7.800;2023-10-31T03:13:58;2.10;;;1.00;;
63555;SDS011;49700;48.072;7.800;2023-10-31T03:16:24;1.58;;;1.10;;
63555;SDS011;49700;48.072;7.800;2023-10-31T03:18:50;2.60;;;1.10;;
63555;SDS011;49700;48.072;7.800;2023-10-31T03:21:16;2.90;;;1.60;;
63555;SDS011;49700;48.072;7.800;2023-10-31T03:23:43;2.60;;;1.60;;
63555;SDS011;49700;48.072;7.800;2023-10-31T03:26:11;8.25;;;1.65;;
63555;SDS011;49700;48.072;7.800;2023-10-31T03:28:36;1.30;;;1.20;;
63555;SDS011;49700;48.072;7.800;2023-10-31T03:31:02;0.80;;;0.70;;
63555;SDS011;49700;48.072;7.800;2023-10-31T03:33:27;1.60;;;1.37;;
63555;SDS011;49700;48.072;7.800;2023-10-31T03:35:53;1.30;;;1.10;;
63555;SDS011;49700;48.072;7.800;2023-10-31T03:38:18;1.10;;;0.90;;
63555;SDS011;49700;48.072;7.800;2023-10-31T03:40:43;1.10;;;0.90;;
63555;SDS011;49700;48.072;7.800;2023-10-31T03:43:11;5.95;;;1.50;;
63555;SDS011;49700;48.072;7.800;2023-10-31T03:45:36;2.07;;;1.27;;
63555;SDS011;49700;48.072;7.800;2023-10-31T03:48:02;2.90;;;1.27;;
63555;SDS011;49700;48.072;7.800;2023-10-31T03:50:27;2.93;;;1.60;;
63555;SDS011;49700;48.072;7.800;2023-10-31T03:52:52;1.00;;;0.90;;
63555;SDS011;49700;48.072;7.800;2023-10-31T03:55:18;2.70;;;1.10;;
63555;SDS011;49700;48.072;7.800;2023-10-31T03:57:44;1.33;;;0.80;;
63555;SDS011;49700;48.072;7.800;2023-10-31T04:00:09;1.77;;;1.10;;
63555;SDS011;49700;48.072;7.800;2023-10-31T04:02:40;1.48;;;0.90;;
63555;SDS011;49700;48.072;7.800;2023-10-31T04:05:07;1.10;;;0.90;;
63555;SDS011;49700;48.072;7.800;2023-10-31T04:07:33;1.30;;;0.82;;
63555;SDS011;49700;48.072;7.800;2023-10-31T04:09:59;1.13;;;1.03;;
63555;SDS011;49700;48.072;7.800;2023-10-31T04:12:24;1.47;;;1.20;;
63555;SDS011;49700;48.072;7.800;2023-10-31T04:14:50;1.57;;;1.20;;
63555;SDS011;49700;48.072;7.800;2023-10-31T04:17:15;2.97;;;2.23;;
63555;SDS011;49700;48.072;7.800;2023-10-31T04:19:41;8.13;;;2.83;;
63555;SDS011;49700;48.072;7.800;2023-10-31T04:22:06;2.13;;;0.90;;
63555;SDS011;49700;48.072;7.800;2023-10-31T04:24:31;5.17;;;1.27;;
63555;SDS011;49700;48.072;7.800;2023-10-31T04:27:00;1.30;;;1.20;;
63555;SDS011;49700;48.072;7.800;2023-10-31T04:29:25;1.25;;;0.93;;
63555;SDS011;49700;48.072;7.800;2023-10-31T04:31:50;1.00;;;0.90;;
63555;SDS011;49700;48.072;7.800;2023-10-31T04:34:16;6.33;;;1.30;;
63555;SDS011;49700;48.072;7.800;2023-10-31T04:36:41;3.73;;;1.37;;
63555;SDS011;49700;48.072;7.800;2023-10-31T04:39:07;1.33;;;0.90;;
63555;SDS011;49700;48.072;7.800;2023-10-31T04:41:32;1.47;;;0.93;;
63555;SDS011;49700;48.072;7.800;2023-10-31T04:43:57;1.30;;;1.00;;
63555;SDS011;49700;48.072;7.800;2023-10-31T04:46:24;1.63;;;1.10;;
63555;SDS011;49700;48.072;7.800;2023-10-31T04:48:52;1.70;;;1.00;;
63555;SDS011;49700;48.072;7.800;2023-10-31T04:51:18;1.27;;;1.00;;
63555;SDS011;49700;48.072;7.800;2023-10-31T04:53:44;1.13;;;1.00;;
63555;SDS011;49700;48.072;7.800;2023-10-31T04:56:12;1.33;;;0.90;;
63555;SDS011;49700;48.072;7.800;2023-10-31T04:58:39;4.93;;;1.65;;
63555;SDS011;49700;48.072;7.800;2023-10-31T05:01:07;2.83;;;1.27;;
63555;SDS011;49700;48.072;7.800;2023-10-31T05:03:33;1.90;;;1.00;;
63555;SDS011;49700;48.072;7.800;2023-10-31T05:05:59;2.80;;;1.30;;
63555;SDS011;49700;48.072;7.800;2023-10-31T05:08:24;1.00;;;0.80;;
63555;SDS011;49700;48.072;7.800;2023-10-31T05:10:50;1.63;;;0.87;;
63555;SDS011;49700;48.072;7.800;2023-10-31T05:13:15;1.30;;;0.80;;
63555;SDS011;49700;48.072;7.800;2023-10-31T05:15:40;4.33;;;1.70;;
63555;SDS011;49700;48.072;7.800;2023-10-31T05:18:06;1.50;;;1.07;;
63555;SDS011;49700;48.072;7.800;2023-10-31T05:20:31;3.60;;;3.30;;
63555;SDS011;49700;48.072;7.800;2023-10-31T05:22:56;1.50;;;0.97;;
63555;SDS011;49700;48.072;7.800;2023-10-31T05:25:22;6.37;;;1.20;;
63555;SDS011;49700;48.072;7.800;2023-10-31T05:27:47;1.97;;;1.10;;
63555;SDS011;49700;48.072;7.800;2023-10-31T05:30:13;1.88;;;1.25;;
63555;SDS011;49700;48.072;7.800;2023-10-31T05:32:39;1.50;;;1.00;;
63555;SDS011;49700;48.072;7.800;2023-10-31T05:35:05;5.13;;;1.23;;
63555;SDS011;49700;48.072;7.800;2023-10-31T05:37:30;1.43;;;1.30;;
63555;SDS011;49700;48.072;7.800;2023-10-31T05:39:56;3.20;;;1.00;;
63555;SDS011;49700;48.072;7.800;2023-10-31T05:42:21;3.50;;;1.17;;
63555;SDS011;49700;48.072;7.800;2023-10-31T05:44:48;5.30;;;1.10;;
63555;SDS011;49700;48.072;7.800;2023-10-31T05:47:14;2.07;;;1.60;;
63555;SDS011;49700;48.072;7.800;2023-10-31T05:49:39;1.50;;;1.00;;
63555;SDS011;49700;48.072;7.800;2023-10-31T05:52:07;1.85;;;1.25;;
63555;SDS011;49700;48.072;7.800;2023-10-31T05:54:32;2.27;;;1.60;;
63555;SDS011;49700;48.072;7.800;2023-10-31T05:56:57;2.10;;;1.37;;
63555;SDS011;49700;48.072;7.800;2023-10-31T05:59:23;5.13;;;1.50;;
63555;SDS011;49700;48.072;7.800;2023-10-31T06:01:48;2.27;;;1.00;;
63555;SDS011;49700;48.072;7.800;2023-10-31T06:04:15;2.88;;;1.40;;
63555;SDS011;49700;48.072;7.800;2023-10-31T06:06:40;5.93;;;1.57;;
63555;SDS011;49700;48.072;7.800;2023-10-31T06:09:06;2.33;;;1.50;;
63555;SDS011;49700;48.072;7.800;2023-10-31T06:11:32;2.67;;;1.27;;
63555;SDS011;49700;48.072;7.800;2023-10-31T06:13:58;1.47;;;1.10;;
63555;SDS011;49700;48.072;7.800;2023-10-31T06:16:24;5.18;;;1.52;;
63555;SDS011;49700;48.072;7.800;2023-10-31T06:18:49;1.53;;;1.43;;
63555;SDS011;49700;48.072;7.800;2023-10-31T06:21:15;2.50;;;1.13;;
63555;SDS011;49700;48.072;7.800;2023-10-31T06:23:40;4.43;;;1.07;;
63555;SDS011;49700;48.072;7.800;2023-10-31T06:26:07;2.03;;;1.40;;
63555;SDS011;49700;48.072;7.800;2023-10-31T06:28:33;3.80;;;1.80;;
63555;SDS011;49700;48.072;7.800;2023-10-31T06:31:00;8.60;;;2.60;;
63555;SDS011;49700;48.072;7.800;2023-10-31T06:33:27;5.70;;;3.00;;
63555;SDS011;49700;48.072;7.800;2023-10-31T06:35:55;8.15;;;4.82;;
63555;SDS011;49700;48.072;7.800;2023-10-31T06:38:21;12.10;;;5.73;;
63555;SDS011;49700;48.072;7.800;2023-10-31T06:40:46;9.23;;;4.90;;
63555;SDS011;49700;48.072;7.800;2023-10-31T06:43:12;4.03;;;2.70;;
63555;SDS011;49700;48.072;7.800;2023-10-31T06:45:38;4.10;;;3.67;;
63555;SDS011;49700;48.072;7.800;2023-10-31T06:48:04;10.23;;;4.28;;
63555;SDS011;49700;48.072;7.800;2023-10-31T06:50:34;4.95;;;2.00;;
63555;SDS011;49700;48.072;7.800;2023-10-31T06:53:00;1.73;;;1.30;;
63555;SDS011;49700;48.072;7.800;2023-10-31T06:55:25;2.30;;;1.40;;
63555;SDS011;49700;48.072;7.800;2023-10-31T06:57:51;2.87;;;1.23;;
63555;SDS011;49700;48.072;7.800;2023-10-31T07:00:16;1.33;;;1.03;;
63555;SDS011;49700;48.072;7.800;2023-10-31T07:02:42;2.90;;;1.30;;
63555;SDS011;49700;48.072;7.800;2023-10-31T07:05:07;2.40;;;1.10;;
63555;SDS011;49700;48.072;7.800;2023-10-31T07:07:33;1.63;;;0.97;;
63555;SDS011;49700;48.072;7.800;2023-10-31T07:09:58;1.60;;;1.20;;
63555;SDS011;49700;48.072;7.800;2023-10-31T07:12:24;2.93;;;1.40;;
63555;SDS011;49700;48.072;7.800;2023-10-31T07:14:53;1.33;;;1.10;;
63555;SDS011;49700;48.072;7.800;2023-10-31T07:17:18;1.53;;;1.00;;
63555;SDS011;49700;48.072;7.800;2023-10-31T07:19:47;1.90;;;1.53;;
63555;SDS011;49700;48.072;7.800;2023-10-31T07:22:12;5.55;;;1.77;;
63555;SDS011;49700;48.072;7.800;2023-10-31T07:24:37;4.60;;;1.70;;
63555;SDS011;49700;48.072;7.800;2023-10-31T07:27:03;5.97;;;3.20;;
63555;SDS011;49700;48.072;7.800;2023-10-31T07:29:29;2.70;;;1.53;;
63555;SDS011;49700;48.072;7.800;2023-10-31T07:31:54;6.50;;;3.90;;
63555;SDS011;49700;48.072;7.800;2023-10-31T07:34:20;3.30;;;2.73;;
63555;SDS011;49700;48.072;7.800;2023-10-31T07:36:45;3.40;;;1.67;;
63555;SDS011;49700;48.072;7.800;2023-10-31T07:39:11;1.07;;;0.90;;
63555;SDS011;49700;48.072;7.800;2023-10-31T07:41:37;1.35;;;1.25;;
63555;SDS011;49700;48.072;7.800;2023-10-31T07:44:03;2.23;;;1.10;;
63555;SDS011;49700;48.072;7.800;2023-10-31T07:46:29;1.10;;;1.00;;
63555;SDS011;49700;48.072;7.800;2023-10-31T07:48:54;1.83;;;0.90;;
63555;SDS011;49700;48.072;7.800;2023-10-31T07:51:20;4.93;;;2.10;;
63555;SDS011;49700;48.072;7.800;2023-10-31T07:53:45;5.30;;;3.50;;
63555;SDS011;49700;48.072;7.800;2023-10-31T07:56:15;12.40;;;5.97;;
63555;SDS011;49700;48.072;7.800;2023-10-31T07:58:41;7.82;;;6.30;;
63555;SDS011;49700;48.072;7.800;2023-10-31T08:01:06;10.43;;;3.17;;
63555;SDS011;49700;48.072;7.800;2023-10-31T08:03:35;5.95;;;2.45;;
63555;SDS011;49700;48.072;7.800;2023-10-31T08:06:05;7.03;;;2.88;;
63555;SDS011;49700;48.072;7.800;2023-10-31T08:08:32;2.35;;;1.10;;
63555;SDS011;49700;48.072;7.800;2023-10-31T08:10:57;3.00;;;1.80;;
63555;SDS011;49700;48.072;7.800;2023-10-31T08:13:24;8.10;;;3.80;;
63555;SDS011;49700;48.072;7.800;2023-10-31T08:15:49;4.20;;;1.57;;
63555;SDS011;49700;48.072;7.800;2023-10-31T08:18:15;1.83;;;1.10;;
63555;SDS011;49700;48.072;7.800;2023-10-31T08:20:40;2.20;;;1.60;;
63555;SDS011;49700;48.072;7.800;2023-10-31T08:23:05;1.03;;;0.80;;
63555;SDS011;49700;48.072;7.800;2023-10-31T08:25:31;1.33;;;1.07;;
63555;SDS011;49700;48.072;7.800;2023-10-31T08:27:56;1.67;;;1.30;;
63555;SDS011;49700;48.072;7.800;2023-10-31T08:30:22;5.30;;;1.80;;
63555;SDS011;49700;48.072;7.800;2023-10-31T08:32:47;6.07;;;3.37;;
63555;SDS011;49700;48.072;7.800;2023-10-31T08:35:13;9.47;;;3.97;;
63555;SDS011;49700;48.072;7.800;2023-10-31T08:37:39;3.97;;;2.00;;
63555;SDS011;49700;48.072;7.800;2023-10-31T08:40:04;1.33;;;1.10;;
63555;SDS011;49700;48.072;7.800;2023-10-31T08:42:30;0.98;;;0.90;;
63555;SDS011;49700;48.072;7.800;2023-10-31T08:44:56;1.60;;;0.90;;
63555;SDS011;49700;48.072;7.800;2023-10-31T08:47:21;2.40;;;1.00;;
63555;SDS011;49700;48.072;7.800;2023-10-31T08:49:47;0.85;;;0.85;;
63555;SDS011;49700;48.072;7.800;2023-10-31T08:52:13;2.23;;;1.30;;
63555;SDS011;49700;48.072;7.800;2023-10-31T08:54:38;1.07;;;1.00;;
63555;SDS011;49700;48.072;7.800;2023-10-31T08:57:04;1.47;;;1.30;;
63555;SDS011;49700;48.072;7.800;2023-10-31T08:59:29;6.80;;;3.50;;
63555;SDS011;49700;48.072;7.800;2023-10-31T09:01:54;1.30;;;1.20;;
63555;SDS011;49700;48.072;7.800;2023-10-31T09:04:20;1.10;;;1.00;;
63555;SDS011;49700;48.072;7.800;2023-10-31T09:06:45;1.10;;;1.00;;
63555;SDS011;49700;48.072;7.800;2023-10-31T09:09:11;1.93;;;0.97;;
63555;SDS011;49700;48.072;7.800;2023-10-31T09:11:36;1.63;;;0.90;;
63555;SDS011;49700;48.072;7.800;2023-10-31T09:14:01;1.20;;;1.00;;
63555;SDS011;49700;48.072;7.800;2023-10-31T09:16:27;1.07;;;0.80;;
63555;SDS011;49700;48.072;7.800;2023-10-31T09:18:52;1.87;;;0.93;;
63555;SDS011;49700;48.072;7.800;2023-10-31T09:21:18;1.93;;;1.40;;
63555;SDS011;49700;48.072;7.800;2023-10-31T09:23:43;3.30;;;1.00;;
63555;SDS011;49700;48.072;7.800;2023-10-31T09:26:09;3.43;;;1.03;;
63555;SDS011;49700;48.072;7.800;2023-10-31T09:28:35;1.27;;;1.10;;
63555;SDS011;49700;48.072;7.800;2023-10-31T09:31:01;2.10;;;1.25;;
63555;SDS011;49700;48.072;7.800;2023-10-31T09:33:27;4.07;;;1.43;;
63555;SDS011;49700;48.072;7.800;2023-10-31T09:35:52;3.40;;;1.40;;
63555;SDS011;49700;48.072;7.800;2023-10-31T09:38:18;4.10;;;1.23;;
63555;SDS011;49700;48.072;7.800;2023-10-31T09:40:43;2.23;;;1.30;;
63555;SDS011;49700;48.072;7.800;2023-10-31T09:43:08;1.20;;;0.90;;
63555;SDS011;49700;48.072;7.800;2023-10-31T09:45:34;2.80;;;0.80;;
63555;SDS011;49700;48.072;7.800;2023-10-31T09:48:00;1.90;;;1.10;;
63555;SDS011;49700;48.072;7.800;2023-10-31T09:50:27;3.28;;;1.00;;
63555;SDS011;49700;48.072;7.800;2023-10-31T09:52:54;1.85;;;1.75;;
63555;SDS011;49700;48.072;7.800;2023-10-31T09:55:21;3.08;;;1.25;;
63555;SDS011;49700;48.072;7.800;2023-10-31T09:57:47;1.13;;;1.02;;
63555;SDS011;49700;48.072;7.800;2023-10-31T10:00:13;2.80;;;1.30;;
63555;SDS011;49700;48.072;7.800;2023-10-31T10:02:39;1.70;;;1.27;;
63555;SDS011;49700;48.072;7.800;2023-10-31T10:05:04;3.77;;;1.47;;
63555;SDS011;49700;48.072;7.800;2023-10-31T10:07:31;3.60;;;1.15;;
63555;SDS011;49700;48.072;7.800;2023-10-31T10:09:58;1.27;;;1.10;;
63555;SDS011;49700;48.072;7.800;2023-10-31T10:12:25;1.85;;;1.00;;
63555;SDS011;49700;48.072;7.800;2023-10-31T10:14:51;2.08;;;1.23;;
63555;SDS011;49700;48.072;7.800;2023-10-31T10:17:18;7.00;;;3.10;;
63555;SDS011;49700;48.072;7.800;2023-10-31T10:19:46;3.28;;;2.45;;
63555;SDS011;49700;48.072;7.800;2023-10-31T10:22:11;5.27;;;3.40;;
63555;SDS011;49700;48.072;7.800;2023-10-31T10:24:41;5.65;;;2.80;;
63555;SDS011;49700;48.072;7.800;2023-10-31T10:27:07;2.28;;;1.30;;
63555;SDS011;49700;48.072;7.800;2023-10-31T10:29:37;8.55;;;5.05;;
63555;SDS011;49700;48.072;7.800;2023-10-31T10:32:06;4.63;;;2.15;;
63555;SDS011;49700;48.072;7.800;2023-10-31T10:34:34;5.50;;;2.17;;
63555;SDS011;49700;48.072;7.800;2023-10-31T10:37:04;5.20;;;2.67;;
63555;SDS011;49700;48.072;7.800;2023-10-31T10:39:32;3.05;;;2.35;;
63555;SDS011;49700;48.072;7.800;2023-10-31T10:41:59;1.98;;;1.25;;
63555;SDS011;49700;48.072;7.800;2023-10-31T10:44:32;3.38;;;1.25;;
63555;SDS011;49700;48.072;7.800;2023-10-31T10:47:01;2.65;;;1.63;;
63555;SDS011;49700;48.072;7.800;2023-10-31T10:49:34;2.03;;;1.80;;
63555;SDS011;49700;48.072;7.800;2023-10-31T10:52:08;5.47;;;2.75;;
63555;SDS011;49700;48.072;7.800;2023-10-31T10:54:44;5.05;;;1.88;;
63555;SDS011;49700;48.072;7.800;2023-10-31T11:00:04;4.30;;;3.10;;
63555;SDS011;49700;48.072;7.800;2023-10-31T11:02:33;6.45;;;3.50;;
63555;SDS011;49700;48.072;7.800;2023-10-31T11:05:02;2.65;;;2.20;;
63555;SDS011;49700;48.072;7.800;2023-10-31T11:07:32;1.97;;;1.20;;
63555;SDS011;49700;48.072;7.800;2023-10-31T11:09:59;2.67;;;1.10;;
63555;SDS011;49700;48.072;7.800;2023-10-31T11:12:28;1.08;;;0.80;;
63555;SDS011;49700;48.072;7.800;2023-10-31T11:14:55;1.00;;;0.75;;
63555;SDS011;49700;48.072;7.800;2023-10-31T11:17:29;1.17;;;0.90;;
63555;SDS011;49700;48.072;7.800;2023-10-31T11:19:56;1.35;;;0.80;;
63555;SDS011;49700;48.072;7.800;2023-10-31T11:22:23;0.82;;;0.68;;
63555;SDS011;49700;48.072;7.800;2023-10-31T11:24:49;1.10;;;0.90;;
63555;SDS011;49700;48.072;7.800;2023-10-31T11:27:15;2.03;;;1.00;;
63555;SDS011;49700;48.072;7.800;2023-10-31T11:29:42;1.58;;;0.80;;
63555;SDS011;49700;48.072;7.800;2023-10-31T11:32:09;2.33;;;0.80;;
63555;SDS011;49700;48.072;7.800;2023-10-31T11:34:36;1.48;;;0.98;;
63555;SDS011;49700;48.072;7.800;2023-10-31T11:40:14;3.13;;;0.90;;
63555;SDS011;49700;48.072;7.800;2023-10-31T11:42:47;1.83;;;0.80;;
63555;SDS011;49700;48.072;7.800;2023-10-31T11:47:57;2.33;;;1.00;;
63555;SDS011;49700;48.072;7.800;2023-10-31T11:50:22;0.80;;;0.73;;
63555;SDS011;49700;48.072;7.800;2023-10-31T11:53:07;1.53;;;0.80;;
63555;SDS011;49700;48.072;7.800;2023-10-31T11:55:34;2.03;;;1.10;;
63555;SDS011;49700;48.072;7.800;2023-10-31T11:58:21;1.42;;;0.82;;
63555;SDS011;49700;48.072;7.800;2023-10-31T12:00:50;0.90;;;0.80;;
63555;SDS011;49700;48.072;7.800;2023-10-31T12:03:17;2.15;;;0.70;;
63555;SDS011;49700;48.072;7.800;2023-10-31T12:05:53;0.70;;;0.60;;
63555;SDS011;49700;48.072;7.800;2023-10-31T12:08:24;1.58;;;0.75;;
63555;SDS011;49700;48.072;7.800;2023-10-31T12:10:53;0.82;;;0.70;;
63555;SDS011;49700;48.072;7.800;2023-10-31T12:13:18;0.90;;;0.70;;
63555;SDS011;49700;48.072;7.800;2023-10-31T12:15:53;0.90;;;0.70;;
63555;SDS011;49700;48.072;7.800;2023-10-31T12:18:18;1.10;;;0.70;;
63555;SDS011;49700;48.072;7.800;2023-10-31T12:20:50;1.17;;;0.60;;
63555;SDS011;49700;48.072;7.800;2023-10-31T12:23:17;0.70;;;0.60;;
63555;SDS011;49700;48.072;7.800;2023-10-31T12:25:49;1.75;;;0.70;;
63555;SDS011;49700;48.072;7.800;2023-10-31T12:28:16;2.00;;;1.30;;
63555;SDS011;49700;48.072;7.800;2023-10-31T12:30:45;0.95;;;0.70;;
63555;SDS011;49700;48.072;7.800;2023-10-31T12:33:12;1.75;;;1.20;;
63555;SDS011;49700;48.072;7.800;2023-10-31T12:35:37;2.20;;;0.80;;
63555;SDS011;49700;48.072;7.800;2023-10-31T12:38:03;1.13;;;0.90;;
63555;SDS011;49700;48.072;7.800;2023-10-31T12:40:29;0.70;;;0.70;;
63555;SDS011;49700;48.072;7.800;2023-10-31T12:42:55;1.63;;;0.70;;
63555;SDS011;49700;48.072;7.800;2023-10-31T12:45:21;1.00;;;0.70;;
63555;SDS011;49700;48.072;7.800;2023-10-31T12:48:02;0.63;;;0.50;;
63555;SDS011;49700;48.072;7.800;2023-10-31T12:50:30;1.00;;;0.90;;
63555;SDS011;49700;48.072;7.800;2023-10-31T12:52:56;0.80;;;0.80;;
63555;SDS011;49700;48.072;7.800;2023-10-31T12:55:23;2.20;;;2.08;;
63555;SDS011;49700;48.072;7.800;2023-10-31T12:57:50;2.28;;;1.00;;
63555;SDS011;49700;48.072;7.800;2023-10-31T13:00:17;0.88;;;0.82;;
63555;SDS011;49700;48.072;7.800;2023-10-31T13:03:10;0.77;;;0.65;;
63555;SDS011;49700;48.072;7.800;2023-10-31T13:05:36;1.20;;;1.10;;
63555;SDS011;49700;48.072;7.800;2023-10-31T13:08:03;0.80;;;0.70;;
63555;SDS011;49700;48.072;7.800;2023-10-31T13:10:30;1.33;;;1.10;;
63555;SDS011;49700;48.072;7.800;2023-10-31T13:12:58;2.85;;;0.95;;
63555;SDS011;49700;48.072;7.800;2023-10-31T13:15:24;2.40;;;0.90;;
63555;SDS011;49700;48.072;7.800;2023-10-31T13:17:50;1.07;;;0.80;;
63555;SDS011;49700;48.072;7.800;2023-10-31T13:20:17;1.05;;;0.80;;
63555;SDS011;49700;48.072;7.800;2023-10-31T13:22:43;0.70;;;0.70;;
63555;SDS011;49700;48.072;7.800;2023-10-31T13:25:10;1.47;;;0.60;;
63555;SDS011;49700;48.072;7.800;2023-10-31T13:27:37;0.70;;;0.60;;
63555;SDS011;49700;48.072;7.800;2023-10-31T13:30:05;1.42;;;0.88;;
63555;SDS011;49700;48.072;7.800;2023-10-31T13:32:31;2.10;;;0.73;;
63555;SDS011;49700;48.072;7.800;2023-10-31T13:34:57;1.73;;;0.90;;
63555;SDS011;49700;48.072;7.800;2023-10-31T13:37:22;1.20;;;0.80;;
63555;SDS011;49700;48.072;7.800;2023-10-31T13:39:48;3.73;;;2.13;;
63555;SDS011;49700;48.072;7.800;2023-10-31T13:42:13;1.17;;;1.00;;
63555;SDS011;49700;48.072;7.800;2023-10-31T13:44:42;1.90;;;0.88;;
63555;SDS011;49700;48.072;7.800;2023-10-31T13:47:07;0.70;;;0.50;;
63555;SDS011;49700;48.072;7.800;2023-10-31T13:49:33;2.00;;;1.20;;
63555;SDS011;49700;48.072;7.800;2023-10-31T13:51:58;0.80;;;0.80;;
63555;SDS011;49700;48.072;7.800;2023-10-31T13:54:24;1.00;;;0.83;;
63555;SDS011;49700;48.072;7.800;2023-10-31T13:56:49;0.70;;;0.70;;
63555;SDS011;49700;48.072;7.800;2023-10-31T13:59:15;0.80;;;0.70;;
63555;SDS011;49700;48.072;7.800;2023-10-31T14:01:41;1.30;;;0.90;;
63555;SDS011;49700;48.072;7.800;2023-10-31T14:04:07;1.00;;;0.90;;
63555;SDS011;49700;48.072;7.800;2023-10-31T14:06:33;2.45;;;0.80;;
63555;SDS011;49700;48.072;7.800;2023-10-31T14:08:59;0.90;;;0.80;;
63555;SDS011;49700;48.072;7.800;2023-10-31T14:11:27;2.78;;;0.90;;
63555;SDS011;49700;48.072;7.800;2023-10-31T14:13:53;1.53;;;0.93;;
63555;SDS011;49700;48.072;7.800;2023-10-31T14:16:18;2.37;;;1.40;;
63555;SDS011;49700;48.072;7.800;2023-10-31T14:18:44;2.10;;;1.20;;
63555;SDS011;49700;48.072;7.800;2023-10-31T14:21:11;2.20;;;1.30;;
63555;SDS011;49700;48.072;7.800;2023-10-31T14:23:37;1.67;;;0.80;;
63555;SDS011;49700;48.072;7.800;2023-10-31T14:26:02;1.90;;;1.00;;
63555;SDS011;49700;48.072;7.800;2023-10-31T14:28:28;0.80;;;0.80;;
63555;SDS011;49700;48.072;7.800;2023-10-31T14:30:53;1.40;;;0.93;;
63555;SDS011;49700;48.072;7.800;2023-10-31T14:33:19;1.10;;;0.70;;
63555;SDS011;49700;48.072;7.800;2023-10-31T14:35:44;0.73;;;0.70;;
63555;SDS011;49700;48.072;7.800;2023-10-31T14:38:10;1.37;;;0.80;;
63555;SDS011;49700;48.072;7.800;2023-10-31T14:40:35;0.90;;;0.70;;
63555;SDS011;49700;48.072;7.800;2023-10-31T14:43:01;1.00;;;0.70;;
63555;SDS011;49700;48.072;7.800;2023-10-31T14:45:26;0.90;;;0.80;;
63555;SDS011;49700;48.072;7.800;2023-10-31T14:47:51;2.10;;;0.80;;
63555;SDS011;49700;48.072;7.800;2023-10-31T14:50:18;1.03;;;0.83;;
63555;SDS011;49700;48.072;7.800;2023-10-31T14:52:45;1.65;;;1.00;;